sensor_id;sensor_type;location;lat;lon;timestamp;P1;durP1;ratioP1;P2;durP2;ratioP2
22046;SDS011;11187;49.412;20.956;2022-09-03T00:00:14;20.23;;;18.52;;
22046;SDS011;11187;49.412;20.956;2022-09-03T00:03:12;17.92;;;16.63;;
22046;SDS011;11187;49.412;20.956;2022-09-03T00:06:13;19.50;;;17.75;;
22046;SDS011;11187;49.412;20.956;2022-09-03T00:15:08;17.63;;;16.30;;
22046;SDS011;11187;49.412;20.956;2022-09-03T00:17:58;16.50;;;15.40;;
22046;SDS011;11187;49.412;20.956;2022-09-03T00:20:58;17.08;;;15.88;;
22046;SDS011;11187;49.412;20.956;2022-09-03T00:23:41;19.33;;;17.95;;
22046;SDS011;11187;49.412;20.956;2022-09-03T00:26:32;17.48;;;15.90;;
22046;SDS011;11187;49.412;20.956;2022-09-03T00:29:12;17.52;;;16.13;;
22046;SDS011;11187;49.412;20.956;2022-09-03T00:32:04;19.30;;;17.75;;
22046;SDS011;11187;49.412;20.956;2022-09-03T00:34:42;18.33;;;17.00;;
22046;SDS011;11187;49.412;20.956;2022-09-03T00:37:42;18.50;;;17.20;;
22046;SDS011;11187;49.412;20.956;2022-09-03T00:40:23;18.80;;;17.20;;
22046;SDS011;11187;49.412;20.956;2022-09-03T00:53:27;17.70;;;16.50;;
22046;SDS011;11187;49.412;20.956;2022-09-03T00:59:33;17.02;;;15.82;;
22046;SDS011;11187;49.412;20.956;2022-09-03T01:02:51;17.55;;;16.15;;
22046;SDS011;11187;49.412;20.956;2022-09-03T01:17:39;16.70;;;15.50;;
22046;SDS011;11187;49.412;20.956;2022-09-03T01:32:47;14.60;;;13.52;;
22046;SDS011;11187;49.412;20.956;2022-09-03T01:38:55;17.77;;;16.58;;
22046;SDS011;11187;49.412;20.956;2022-09-03T01:41:51;17.55;;;16.35;;
22046;SDS011;11187;49.412;20.956;2022-09-03T01:51:23;16.52;;;15.27;;
22046;SDS011;11187;49.412;20.956;2022-09-03T02:00:21;17.77;;;16.67;;
22046;SDS011;11187;49.412;20.956;2022-09-03T02:02:55;17.33;;;16.13;;
22046;SDS011;11187;49.412;20.956;2022-09-03T02:05:49;16.35;;;15.25;;
22046;SDS011;11187;49.412;20.956;2022-09-03T02:08:25;17.98;;;16.77;;
22046;SDS011;11187;49.412;20.956;2022-09-03T02:11:19;19.50;;;18.20;;
22046;SDS011;11187;49.412;20.956;2022-09-03T02:14:13;18.45;;;17.15;;
22046;SDS011;11187;49.412;20.956;2022-09-03T02:16:46;17.08;;;15.98;;
22046;SDS011;11187;49.412;20.956;2022-09-03T02:19:33;15.95;;;14.68;;
22046;SDS011;11187;49.412;20.956;2022-09-03T02:22:09;16.70;;;15.50;;
22046;SDS011;11187;49.412;20.956;2022-09-03T02:25:05;18.45;;;16.95;;
22046;SDS011;11187;49.412;20.956;2022-09-03T02:28:00;17.60;;;16.40;;
22046;SDS011;11187;49.412;20.956;2022-09-03T02:30:43;15.65;;;14.65;;
22046;SDS011;11187;49.412;20.956;2022-09-03T02:33:31;17.40;;;16.10;;
22046;SDS011;11187;49.412;20.956;2022-09-03T02:36:10;17.50;;;16.40;;
22046;SDS011;11187;49.412;20.956;2022-09-03T02:38:59;15.27;;;14.18;;
22046;SDS011;11187;49.412;20.956;2022-09-03T02:41:32;15.23;;;14.30;;
22046;SDS011;11187;49.412;20.956;2022-09-03T02:44:21;16.35;;;15.15;;
22046;SDS011;11187;49.412;20.956;2022-09-03T02:47:04;18.13;;;16.95;;
22046;SDS011;11187;49.412;20.956;2022-09-03T02:50:01;16.77;;;15.70;;
22046;SDS011;11187;49.412;20.956;2022-09-03T02:52:55;16.40;;;15.40;;
22046;SDS011;11187;49.412;20.956;2022-09-03T02:55:28;18.50;;;17.30;;
22046;SDS011;11187;49.412;20.956;2022-09-03T02:58:22;16.30;;;15.27;;
22046;SDS011;11187;49.412;20.956;2022-09-03T03:00:55;16.10;;;15.07;;
22046;SDS011;11187;49.412;20.956;2022-09-03T03:03:53;15.73;;;14.80;;
22046;SDS011;11187;49.412;20.956;2022-09-03T03:06:47;15.80;;;14.70;;
22046;SDS011;11187;49.412;20.956;2022-09-03T03:09:22;16.27;;;15.18;;
22046;SDS011;11187;49.412;20.956;2022-09-03T03:12:09;16.63;;;15.52;;
22046;SDS011;11187;49.412;20.956;2022-09-03T03:14:42;16.58;;;15.48;;
22046;SDS011;11187;49.412;20.956;2022-09-03T03:17:29;16.63;;;15.48;;
22046;SDS011;11187;49.412;20.956;2022-09-03T03:20:03;16.02;;;15.02;;
22046;SDS011;11187;49.412;20.956;2022-09-03T03:22:50;14.00;;;13.10;;
22046;SDS011;11187;49.412;20.956;2022-09-03T03:25:23;15.30;;;14.13;;
22046;SDS011;11187;49.412;20.956;2022-09-03T03:28:17;17.77;;;16.58;;
22046;SDS011;11187;49.412;20.956;2022-09-03T03:31:11;16.85;;;15.75;;
22046;SDS011;11187;49.412;20.956;2022-09-03T03:33:53;16.58;;;15.57;;
22046;SDS011;11187;49.412;20.956;2022-09-03T03:36:41;18.27;;;17.17;;
22046;SDS011;11187;49.412;20.956;2022-09-03T03:39:14;18.65;;;17.45;;
22046;SDS011;11187;49.412;20.956;2022-09-03T03:42:01;16.95;;;15.85;;
22046;SDS011;11187;49.412;20.956;2022-09-03T03:44:34;18.70;;;17.55;;
22046;SDS011;11187;49.412;20.956;2022-09-03T03:47:23;18.20;;;17.10;;
22046;SDS011;11187;49.412;20.956;2022-09-03T03:49:59;18.50;;;17.30;;
22046;SDS011;11187;49.412;20.956;2022-09-03T03:52:46;17.17;;;16.13;;
22046;SDS011;11187;49.412;20.956;2022-09-03T03:55:20;16.17;;;15.18;;
22046;SDS011;11187;49.412;20.956;2022-09-03T03:58:11;17.25;;;16.20;;
22046;SDS011;11187;49.412;20.956;2022-09-03T04:00:44;17.00;;;16.00;;
22046;SDS011;11187;49.412;20.956;2022-09-03T04:03:31;16.08;;;15.07;;
22046;SDS011;11187;49.412;20.956;2022-09-03T04:06:04;14.35;;;13.45;;
22046;SDS011;11187;49.412;20.956;2022-09-03T04:08:52;16.15;;;15.05;;
22046;SDS011;11187;49.412;20.956;2022-09-03T04:11:28;13.60;;;12.80;;
22046;SDS011;11187;49.412;20.956;2022-09-03T04:14:15;13.35;;;12.55;;
22046;SDS011;11187;49.412;20.956;2022-09-03T04:16:49;16.08;;;15.07;;
22046;SDS011;11187;49.412;20.956;2022-09-03T04:19:36;15.57;;;14.60;;
22046;SDS011;11187;49.412;20.956;2022-09-03T04:22:09;14.20;;;13.25;;
22046;SDS011;11187;49.412;20.956;2022-09-03T04:24:58;15.50;;;14.60;;
22046;SDS011;11187;49.412;20.956;2022-09-03T04:27:31;14.98;;;13.88;;
22046;SDS011;11187;49.412;20.956;2022-09-03T04:30:18;15.00;;;14.10;;
22046;SDS011;11187;49.412;20.956;2022-09-03T04:32:51;15.18;;;14.05;;
22046;SDS011;11187;49.412;20.956;2022-09-03T04:35:38;15.95;;;14.95;;
22046;SDS011;11187;49.412;20.956;2022-09-03T04:38:12;13.25;;;12.40;;
22046;SDS011;11187;49.412;20.956;2022-09-03T04:40:59;13.93;;;13.02;;
22046;SDS011;11187;49.412;20.956;2022-09-03T04:43:34;15.25;;;14.25;;
22046;SDS011;11187;49.412;20.956;2022-09-03T04:46:30;14.55;;;13.65;;
22046;SDS011;11187;49.412;20.956;2022-09-03T04:49:05;13.25;;;12.35;;
22046;SDS011;11187;49.412;20.956;2022-09-03T04:52:00;13.65;;;12.75;;
22046;SDS011;11187;49.412;20.956;2022-09-03T04:54:55;15.68;;;14.68;;
22046;SDS011;11187;49.412;20.956;2022-09-03T04:57:28;13.93;;;13.07;;
22046;SDS011;11187;49.412;20.956;2022-09-03T05:00:16;14.43;;;13.52;;
22046;SDS011;11187;49.412;20.956;2022-09-03T05:02:50;13.93;;;12.82;;
22046;SDS011;11187;49.412;20.956;2022-09-03T05:05:37;14.02;;;13.13;;
22046;SDS011;11187;49.412;20.956;2022-09-03T05:08:14;15.15;;;14.05;;
22046;SDS011;11187;49.412;20.956;2022-09-03T05:11:01;13.85;;;12.95;;
22046;SDS011;11187;49.412;20.956;2022-09-03T05:13:35;14.02;;;12.98;;
22046;SDS011;11187;49.412;20.956;2022-09-03T05:16:22;15.20;;;14.20;;
22046;SDS011;11187;49.412;20.956;2022-09-03T05:18:57;15.18;;;14.27;;
22046;SDS011;11187;49.412;20.956;2022-09-03T05:21:53;13.65;;;12.85;;
22046;SDS011;11187;49.412;20.956;2022-09-03T05:24:26;14.18;;;13.15;;
22046;SDS011;11187;49.412;20.956;2022-09-03T05:27:13;14.00;;;13.20;;
22046;SDS011;11187;49.412;20.956;2022-09-03T05:29:48;13.27;;;12.48;;
22046;SDS011;11187;49.412;20.956;2022-09-03T05:32:42;13.32;;;12.52;;
22046;SDS011;11187;49.412;20.956;2022-09-03T05:35:36;13.43;;;12.63;;
22046;SDS011;11187;49.412;20.956;2022-09-03T05:38:30;16.20;;;15.25;;
22046;SDS011;11187;49.412;20.956;2022-09-03T05:41:04;14.48;;;13.57;;
22046;SDS011;11187;49.412;20.956;2022-09-03T05:44:00;15.70;;;14.77;;
22046;SDS011;11187;49.412;20.956;2022-09-03T05:46:34;15.23;;;14.23;;
22046;SDS011;11187;49.412;20.956;2022-09-03T05:49:28;16.08;;;15.07;;
22046;SDS011;11187;49.412;20.956;2022-09-03T05:52:22;13.48;;;12.68;;
22046;SDS011;11187;49.412;20.956;2022-09-03T05:54:55;12.55;;;11.75;;
22046;SDS011;11187;49.412;20.956;2022-09-03T05:57:42;13.55;;;12.65;;
22046;SDS011;11187;49.412;20.956;2022-09-03T06:00:15;13.07;;;12.27;;
22046;SDS011;11187;49.412;20.956;2022-09-03T06:03:02;14.95;;;14.05;;
22046;SDS011;11187;49.412;20.956;2022-09-03T06:05:35;13.15;;;12.18;;
22046;SDS011;11187;49.412;20.956;2022-09-03T06:08:24;14.13;;;13.23;;
22046;SDS011;11187;49.412;20.956;2022-09-03T06:10:58;14.63;;;13.73;;
22046;SDS011;11187;49.412;20.956;2022-09-03T06:13:46;13.20;;;12.40;;
22046;SDS011;11187;49.412;20.956;2022-09-03T06:16:19;14.82;;;13.93;;
22046;SDS011;11187;49.412;20.956;2022-09-03T06:19:10;14.25;;;13.13;;
22046;SDS011;11187;49.412;20.956;2022-09-03T06:21:46;14.30;;;13.40;;
22046;SDS011;11187;49.412;20.956;2022-09-03T06:24:41;10.93;;;10.23;;
22046;SDS011;11187;49.412;20.956;2022-09-03T06:27:35;14.20;;;13.23;;
22046;SDS011;11187;49.412;20.956;2022-09-03T06:30:08;13.40;;;12.50;;
22046;SDS011;11187;49.412;20.956;2022-09-03T06:33:03;13.40;;;12.50;;
22046;SDS011;11187;49.412;20.956;2022-09-03T06:35:36;13.50;;;12.70;;
22046;SDS011;11187;49.412;20.956;2022-09-03T06:38:23;12.40;;;11.70;;
22046;SDS011;11187;49.412;20.956;2022-09-03T06:41:00;13.95;;;13.13;;
22046;SDS011;11187;49.412;20.956;2022-09-03T06:44:05;14.88;;;13.70;;
22046;SDS011;11187;49.412;20.956;2022-09-03T06:47:01;15.38;;;14.38;;
22046;SDS011;11187;49.412;20.956;2022-09-03T06:49:34;16.20;;;15.10;;
22046;SDS011;11187;49.412;20.956;2022-09-03T06:52:28;14.55;;;13.63;;
22046;SDS011;11187;49.412;20.956;2022-09-03T06:55:01;15.35;;;14.25;;
22046;SDS011;11187;49.412;20.956;2022-09-03T06:57:55;14.35;;;13.38;;
22046;SDS011;11187;49.412;20.956;2022-09-03T07:00:49;14.52;;;13.63;;
22046;SDS011;11187;49.412;20.956;2022-09-03T07:03:24;14.40;;;13.50;;
22046;SDS011;11187;49.412;20.956;2022-09-03T07:06:18;14.75;;;13.85;;
22046;SDS011;11187;49.412;20.956;2022-09-03T07:09:12;17.38;;;16.00;;
22046;SDS011;11187;49.412;20.956;2022-09-03T07:12:06;16.58;;;15.20;;
22046;SDS011;11187;49.412;20.956;2022-09-03T07:14:39;14.98;;;13.98;;
22046;SDS011;11187;49.412;20.956;2022-09-03T07:17:30;13.65;;;12.85;;
22046;SDS011;11187;49.412;20.956;2022-09-03T07:20:03;14.52;;;13.38;;
22046;SDS011;11187;49.412;20.956;2022-09-03T07:22:53;13.40;;;12.60;;
22046;SDS011;11187;49.412;20.956;2022-09-03T07:25:27;14.73;;;13.75;;
22046;SDS011;11187;49.412;20.956;2022-09-03T07:28:14;14.80;;;13.80;;
22046;SDS011;11187;49.412;20.956;2022-09-03T07:30:48;13.65;;;12.65;;
22046;SDS011;11187;49.412;20.956;2022-09-03T07:33:36;15.00;;;13.95;;
22046;SDS011;11187;49.412;20.956;2022-09-03T07:36:12;15.57;;;14.48;;
22046;SDS011;11187;49.412;20.956;2022-09-03T07:39:14;15.73;;;14.73;;
22046;SDS011;11187;49.412;20.956;2022-09-03T07:42:08;15.75;;;14.75;;
22046;SDS011;11187;49.412;20.956;2022-09-03T07:45:02;15.98;;;14.98;;
22046;SDS011;11187;49.412;20.956;2022-09-03T07:47:44;16.45;;;15.35;;
22046;SDS011;11187;49.412;20.956;2022-09-03T07:50:32;16.60;;;15.55;;
22046;SDS011;11187;49.412;20.956;2022-09-03T07:53:10;17.23;;;16.13;;
22046;SDS011;11187;49.412;20.956;2022-09-03T07:56:07;15.52;;;14.52;;
22046;SDS011;11187;49.412;20.956;2022-09-03T07:59:02;17.98;;;16.63;;
22046;SDS011;11187;49.412;20.956;2022-09-03T08:01:57;18.33;;;16.88;;
22046;SDS011;11187;49.412;20.956;2022-09-03T08:04:30;16.50;;;15.45;;
22046;SDS011;11187;49.412;20.956;2022-09-03T08:07:17;14.40;;;13.32;;
22046;SDS011;11187;49.412;20.956;2022-09-03T08:09:52;15.18;;;14.18;;
22046;SDS011;11187;49.412;20.956;2022-09-03T08:12:47;16.85;;;15.75;;
22046;SDS011;11187;49.412;20.956;2022-09-03T08:15:41;16.30;;;15.18;;
22046;SDS011;11187;49.412;20.956;2022-09-03T08:18:14;17.02;;;15.73;;
22046;SDS011;11187;49.412;20.956;2022-09-03T08:21:03;16.17;;;15.07;;
22046;SDS011;11187;49.412;20.956;2022-09-03T08:23:41;17.50;;;16.40;;
22046;SDS011;11187;49.412;20.956;2022-09-03T08:26:40;18.00;;;16.80;;
22046;SDS011;11187;49.412;20.956;2022-09-03T08:29:24;15.77;;;14.43;;
22046;SDS011;11187;49.412;20.956;2022-09-03T08:32:04;16.75;;;15.65;;
22046;SDS011;11187;49.412;20.956;2022-09-03T08:34:46;17.50;;;16.40;;
22046;SDS011;11187;49.412;20.956;2022-09-03T08:37:26;15.48;;;14.57;;
22046;SDS011;11187;49.412;20.956;2022-09-03T08:40:08;15.25;;;14.25;;
22046;SDS011;11187;49.412;20.956;2022-09-03T08:45:52;20.08;;;18.27;;
22046;SDS011;11187;49.412;20.956;2022-09-03T08:48:25;14.80;;;13.80;;
22046;SDS011;11187;49.412;20.956;2022-09-03T08:51:20;16.80;;;15.65;;
22046;SDS011;11187;49.412;20.956;2022-09-03T08:54:17;19.02;;;17.70;;
22046;SDS011;11187;49.412;20.956;2022-09-03T08:57:14;17.95;;;16.75;;
22046;SDS011;11187;49.412;20.956;2022-09-03T08:59:52;14.85;;;13.90;;
22046;SDS011;11187;49.412;20.956;2022-09-03T09:15:02;17.92;;;16.55;;
22046;SDS011;11187;49.412;20.956;2022-09-03T09:20:43;19.38;;;18.15;;
22046;SDS011;11187;49.412;20.956;2022-09-03T09:23:31;19.73;;;18.23;;
22046;SDS011;11187;49.412;20.956;2022-09-03T09:26:22;15.88;;;14.88;;
22046;SDS011;11187;49.412;20.956;2022-09-03T09:29:00;18.23;;;16.95;;
22046;SDS011;11187;49.412;20.956;2022-09-03T09:31:58;15.85;;;14.85;;
22046;SDS011;11187;49.412;20.956;2022-09-03T09:34:52;16.38;;;15.18;;
22046;SDS011;11187;49.412;20.956;2022-09-03T09:37:26;15.50;;;14.50;;
22046;SDS011;11187;49.412;20.956;2022-09-03T09:40:25;16.27;;;15.20;;
22046;SDS011;11187;49.412;20.956;2022-09-03T09:43:27;18.20;;;16.90;;
22046;SDS011;11187;49.412;20.956;2022-09-03T09:46:22;16.55;;;15.45;;
22046;SDS011;11187;49.412;20.956;2022-09-03T09:48:58;16.50;;;15.50;;
22046;SDS011;11187;49.412;20.956;2022-09-03T09:51:45;15.18;;;14.20;;
22046;SDS011;11187;49.412;20.956;2022-09-03T09:54:23;17.50;;;16.40;;
22046;SDS011;11187;49.412;20.956;2022-09-03T09:57:22;19.23;;;18.10;;
22046;SDS011;11187;49.412;20.956;2022-09-03T10:00:18;20.35;;;19.05;;
22046;SDS011;11187;49.412;20.956;2022-09-03T10:02:52;18.00;;;16.90;;
22046;SDS011;11187;49.412;20.956;2022-09-03T10:05:56;16.90;;;15.75;;
22046;SDS011;11187;49.412;20.956;2022-09-03T10:09:16;15.77;;;14.77;;
22046;SDS011;11187;49.412;20.956;2022-09-03T10:27:25;14.98;;;13.98;;
22046;SDS011;11187;49.412;20.956;2022-09-03T10:30:20;16.23;;;14.98;;
22046;SDS011;11187;49.412;20.956;2022-09-03T10:33:09;15.57;;;14.55;;
22046;SDS011;11187;49.412;20.956;2022-09-03T10:38:52;14.95;;;13.98;;
22046;SDS011;11187;49.412;20.956;2022-09-03T10:54:34;17.67;;;16.50;;
22046;SDS011;11187;49.412;20.956;2022-09-03T11:00:17;17.33;;;16.23;;
22046;SDS011;11187;49.412;20.956;2022-09-03T11:03:22;16.77;;;15.68;;
22046;SDS011;11187;49.412;20.956;2022-09-03T11:06:14;16.33;;;15.32;;
22046;SDS011;11187;49.412;20.956;2022-09-03T11:09:25;14.70;;;13.27;;
22046;SDS011;11187;49.412;20.956;2022-09-03T11:12:21;15.20;;;14.18;;
22046;SDS011;11187;49.412;20.956;2022-09-03T11:18:02;15.68;;;14.63;;
22046;SDS011;11187;49.412;20.956;2022-09-03T11:21:06;15.75;;;14.75;;
22046;SDS011;11187;49.412;20.956;2022-09-03T11:24:11;15.65;;;14.38;;
22046;SDS011;11187;49.412;20.956;2022-09-03T11:32:59;17.27;;;15.00;;
22046;SDS011;11187;49.412;20.956;2022-09-03T11:35:40;15.75;;;14.65;;
22046;SDS011;11187;49.412;20.956;2022-09-03T11:38:45;15.80;;;14.80;;
22046;SDS011;11187;49.412;20.956;2022-09-03T11:41:39;16.40;;;15.25;;
22046;SDS011;11187;49.412;20.956;2022-09-03T11:44:19;16.08;;;15.07;;
22046;SDS011;11187;49.412;20.956;2022-09-03T11:47:13;16.02;;;14.93;;
22046;SDS011;11187;49.412;20.956;2022-09-03T11:49:52;16.05;;;14.95;;
22046;SDS011;11187;49.412;20.956;2022-09-03T11:52:52;16.13;;;15.07;;
22046;SDS011;11187;49.412;20.956;2022-09-03T11:55:51;18.70;;;17.55;;
22046;SDS011;11187;49.412;20.956;2022-09-03T11:58:38;16.40;;;14.90;;
22046;SDS011;11187;49.412;20.956;2022-09-03T12:01:21;16.08;;;15.07;;
22046;SDS011;11187;49.412;20.956;2022-09-03T12:04:02;16.25;;;15.15;;
22046;SDS011;11187;49.412;20.956;2022-09-03T12:07:00;16.27;;;14.73;;
22046;SDS011;11187;49.412;20.956;2022-09-03T12:18:35;14.88;;;13.68;;
22046;SDS011;11187;49.412;20.956;2022-09-03T12:21:10;15.73;;;14.63;;
22046;SDS011;11187;49.412;20.956;2022-09-03T12:23:57;15.65;;;14.65;;
22046;SDS011;11187;49.412;20.956;2022-09-03T12:26:38;17.45;;;16.25;;
22046;SDS011;11187;49.412;20.956;2022-09-03T12:29:33;16.38;;;15.27;;
22046;SDS011;11187;49.412;20.956;2022-09-03T12:32:07;16.02;;;15.02;;
22046;SDS011;11187;49.412;20.956;2022-09-03T12:35:17;18.15;;;16.95;;
22046;SDS011;11187;49.412;20.956;2022-09-03T12:38:21;16.08;;;14.90;;
22046;SDS011;11187;49.412;20.956;2022-09-03T12:41:37;15.15;;;14.15;;
22046;SDS011;11187;49.412;20.956;2022-09-03T12:50:21;16.20;;;15.13;;
22046;SDS011;11187;49.412;20.956;2022-09-03T12:53:27;16.83;;;15.70;;
22046;SDS011;11187;49.412;20.956;2022-09-03T12:56:25;15.73;;;14.73;;
22046;SDS011;11187;49.412;20.956;2022-09-03T12:59:21;15.75;;;14.75;;
22046;SDS011;11187;49.412;20.956;2022-09-03T13:01:59;17.35;;;16.17;;
22046;SDS011;11187;49.412;20.956;2022-09-03T13:04:55;16.83;;;15.80;;
22046;SDS011;11187;49.412;20.956;2022-09-03T13:07:30;15.80;;;14.73;;
22046;SDS011;11187;49.412;20.956;2022-09-03T13:10:27;15.30;;;14.30;;
22046;SDS011;11187;49.412;20.956;2022-09-03T13:13:06;16.52;;;15.43;;
22046;SDS011;11187;49.412;20.956;2022-09-03T13:28:55;15.80;;;14.77;;
22046;SDS011;11187;49.412;20.956;2022-09-03T13:31:48;16.88;;;15.77;;
22046;SDS011;11187;49.412;20.956;2022-09-03T13:34:47;16.83;;;15.63;;
22046;SDS011;11187;49.412;20.956;2022-09-03T13:37:26;16.33;;;15.27;;
22046;SDS011;11187;49.412;20.956;2022-09-03T13:43:02;14.68;;;13.68;;
22046;SDS011;11187;49.412;20.956;2022-09-03T13:46:15;16.73;;;15.73;;
22046;SDS011;11187;49.412;20.956;2022-09-03T13:48:56;17.48;;;16.27;;
22046;SDS011;11187;49.412;20.956;2022-09-03T13:52:21;16.73;;;15.63;;
22046;SDS011;11187;49.412;20.956;2022-09-03T14:01:16;15.65;;;14.52;;
22046;SDS011;11187;49.412;20.956;2022-09-03T14:04:00;15.32;;;14.30;;
22046;SDS011;11187;49.412;20.956;2022-09-03T14:06:58;15.32;;;14.32;;
22046;SDS011;11187;49.412;20.956;2022-09-03T14:09:53;13.70;;;12.85;;
22046;SDS011;11187;49.412;20.956;2022-09-03T14:16:09;16.95;;;15.85;;
22046;SDS011;11187;49.412;20.956;2022-09-03T14:21:53;18.10;;;16.90;;
22046;SDS011;11187;49.412;20.956;2022-09-03T14:24:51;19.92;;;18.63;;
22046;SDS011;11187;49.412;20.956;2022-09-03T14:27:48;16.00;;;15.00;;
22046;SDS011;11187;49.412;20.956;2022-09-03T14:30:44;14.32;;;13.15;;
22046;SDS011;11187;49.412;20.956;2022-09-03T14:37:00;17.27;;;16.17;;
22046;SDS011;11187;49.412;20.956;2022-09-03T14:43:14;17.73;;;16.52;;
22046;SDS011;11187;49.412;20.956;2022-09-03T14:52:49;17.42;;;16.20;;
22046;SDS011;11187;49.412;20.956;2022-09-03T15:07:44;16.85;;;15.68;;
22046;SDS011;11187;49.412;20.956;2022-09-03T15:13:51;16.65;;;15.60;;
22046;SDS011;11187;49.412;20.956;2022-09-03T15:32:12;16.60;;;15.50;;
22046;SDS011;11187;49.412;20.956;2022-09-03T15:35:05;17.92;;;16.52;;
22046;SDS011;11187;49.412;20.956;2022-09-03T15:37:53;19.27;;;17.77;;
22046;SDS011;11187;49.412;20.956;2022-09-03T15:43:42;20.70;;;19.25;;
22046;SDS011;11187;49.412;20.956;2022-09-03T15:46:50;19.67;;;18.35;;
22046;SDS011;11187;49.412;20.956;2022-09-03T15:56:06;17.15;;;15.93;;
22046;SDS011;11187;49.412;20.956;2022-09-03T15:59:06;16.98;;;15.80;;
22046;SDS011;11187;49.412;20.956;2022-09-03T16:01:55;18.02;;;16.83;;
22046;SDS011;11187;49.412;20.956;2022-09-03T16:14:04;17.30;;;16.00;;
22046;SDS011;11187;49.412;20.956;2022-09-03T16:20:06;15.68;;;14.57;;
22046;SDS011;11187;49.412;20.956;2022-09-03T16:22:55;15.80;;;14.60;;
22046;SDS011;11187;49.412;20.956;2022-09-03T16:28:29;17.33;;;16.13;;
22046;SDS011;11187;49.412;20.956;2022-09-03T16:40:30;17.63;;;16.42;;
22046;SDS011;11187;49.412;20.956;2022-09-03T16:43:44;18.30;;;16.05;;
22046;SDS011;11187;49.412;20.956;2022-09-03T16:52:47;16.92;;;15.63;;
22046;SDS011;11187;49.412;20.956;2022-09-03T16:59:13;16.27;;;15.13;;
22046;SDS011;11187;49.412;20.956;2022-09-03T17:05:19;17.17;;;15.98;;
22046;SDS011;11187;49.412;20.956;2022-09-03T17:22:21;16.45;;;15.25;;
22046;SDS011;11187;49.412;20.956;2022-09-03T17:37:10;19.58;;;17.70;;
22046;SDS011;11187;49.412;20.956;2022-09-03T17:46:13;19.85;;;18.05;;
22046;SDS011;11187;49.412;20.956;2022-09-03T17:49:28;20.98;;;19.35;;
22046;SDS011;11187;49.412;20.956;2022-09-03T17:58:40;20.80;;;19.10;;
22046;SDS011;11187;49.412;20.956;2022-09-03T18:01:25;20.00;;;18.40;;
22046;SDS011;11187;49.412;20.956;2022-09-03T18:04:17;20.02;;;18.52;;
22046;SDS011;11187;49.412;20.956;2022-09-03T18:12:45;21.30;;;19.50;;
22046;SDS011;11187;49.412;20.956;2022-09-03T18:15:51;22.20;;;20.20;;
22046;SDS011;11187;49.412;20.956;2022-09-03T18:18:49;23.00;;;21.05;;
22046;SDS011;11187;49.412;20.956;2022-09-03T18:21:25;21.80;;;20.10;;
22046;SDS011;11187;49.412;20.956;2022-09-03T18:24:46;20.80;;;19.20;;
22046;SDS011;11187;49.412;20.956;2022-09-03T18:27:48;22.10;;;20.30;;
22046;SDS011;11187;49.412;20.956;2022-09-03T18:30:59;21.95;;;20.10;;
22046;SDS011;11187;49.412;20.956;2022-09-03T18:33:51;21.88;;;20.15;;
22046;SDS011;11187;49.412;20.956;2022-09-03T18:37:02;22.55;;;20.67;;
22046;SDS011;11187;49.412;20.956;2022-09-03T18:39:54;23.60;;;21.77;;
22046;SDS011;11187;49.412;20.956;2022-09-03T18:43:22;22.20;;;20.50;;
22046;SDS011;11187;49.412;20.956;2022-09-03T18:50:49;22.92;;;21.20;;
22046;SDS011;11187;49.412;20.956;2022-09-03T19:08:34;25.38;;;23.38;;
22046;SDS011;11187;49.412;20.956;2022-09-03T19:14:55;27.15;;;24.95;;
22046;SDS011;11187;49.412;20.956;2022-09-03T19:21:33;26.27;;;24.27;;
22046;SDS011;11187;49.412;20.956;2022-09-03T19:24:42;25.38;;;23.10;;
22046;SDS011;11187;49.412;20.956;2022-09-03T19:31:08;28.55;;;25.55;;
22046;SDS011;11187;49.412;20.956;2022-09-03T19:37:34;31.48;;;28.38;;
22046;SDS011;11187;49.412;20.956;2022-09-03T19:50:36;26.25;;;24.05;;
22046;SDS011;11187;49.412;20.956;2022-09-03T19:53:53;25.63;;;23.50;;
22046;SDS011;11187;49.412;20.956;2022-09-03T19:56:48;25.05;;;23.10;;
22046;SDS011;11187;49.412;20.956;2022-09-03T19:59:54;22.88;;;21.13;;
22046;SDS011;11187;49.412;20.956;2022-09-03T20:02:58;25.90;;;23.90;;
22046;SDS011;11187;49.412;20.956;2022-09-03T20:06:06;24.35;;;22.52;;
22046;SDS011;11187;49.412;20.956;2022-09-03T20:09:02;24.38;;;22.23;;
22046;SDS011;11187;49.412;20.956;2022-09-03T20:12:18;23.17;;;21.38;;
22046;SDS011;11187;49.412;20.956;2022-09-03T20:14:54;24.48;;;22.45;;
22046;SDS011;11187;49.412;20.956;2022-09-03T20:17:46;24.35;;;22.35;;
22046;SDS011;11187;49.412;20.956;2022-09-03T20:20:47;23.98;;;22.08;;
22046;SDS011;11187;49.412;20.956;2022-09-03T20:32:39;23.67;;;21.88;;
22046;SDS011;11187;49.412;20.956;2022-09-03T20:38:43;25.25;;;23.08;;
22046;SDS011;11187;49.412;20.956;2022-09-03T20:51:00;27.90;;;25.20;;
22046;SDS011;11187;49.412;20.956;2022-09-03T20:54:06;26.45;;;23.98;;
22046;SDS011;11187;49.412;20.956;2022-09-03T21:00:09;25.98;;;23.83;;
22046;SDS011;11187;49.412;20.956;2022-09-03T21:02:57;26.15;;;23.92;;
22046;SDS011;11187;49.412;20.956;2022-09-03T21:24:26;25.13;;;23.02;;
22046;SDS011;11187;49.412;20.956;2022-09-03T21:27:05;24.60;;;22.55;;
22046;SDS011;11187;49.412;20.956;2022-09-03T21:30:13;25.48;;;23.10;;
22046;SDS011;11187;49.412;20.956;2022-09-03T21:33:17;25.52;;;23.48;;
22046;SDS011;11187;49.412;20.956;2022-09-03T21:36:08;24.23;;;22.20;;
22046;SDS011;11187;49.412;20.956;2022-09-03T21:39:08;22.30;;;20.55;;
22046;SDS011;11187;49.412;20.956;2022-09-03T21:47:39;22.50;;;20.52;;
22046;SDS011;11187;49.412;20.956;2022-09-03T21:50:47;22.95;;;21.15;;
22046;SDS011;11187;49.412;20.956;2022-09-03T21:53:49;24.70;;;22.80;;
22046;SDS011;11187;49.412;20.956;2022-09-03T21:57:08;25.83;;;23.63;;
22046;SDS011;11187;49.412;20.956;2022-09-03T22:03:18;23.33;;;21.42;;
22046;SDS011;11187;49.412;20.956;2022-09-03T22:06:16;23.92;;;22.15;;
22046;SDS011;11187;49.412;20.956;2022-09-03T22:12:40;24.55;;;22.55;;
22046;SDS011;11187;49.412;20.956;2022-09-03T22:15:19;23.75;;;21.70;;
22046;SDS011;11187;49.412;20.956;2022-09-03T22:20:47;23.75;;;22.00;;
22046;SDS011;11187;49.412;20.956;2022-09-03T22:29:52;22.92;;;21.20;;
22046;SDS011;11187;49.412;20.956;2022-09-03T22:32:37;21.88;;;20.17;;
22046;SDS011;11187;49.412;20.956;2022-09-03T22:48:12;23.70;;;21.70;;
22046;SDS011;11187;49.412;20.956;2022-09-03T22:50:55;22.92;;;21.23;;
22046;SDS011;11187;49.412;20.956;2022-09-03T22:56:57;24.65;;;22.75;;
22046;SDS011;11187;49.412;20.956;2022-09-03T22:59:36;24.85;;;22.85;;
22046;SDS011;11187;49.412;20.956;2022-09-03T23:02:34;22.70;;;20.80;;
22046;SDS011;11187;49.412;20.956;2022-09-03T23:08:31;22.73;;;20.80;;
22046;SDS011;11187;49.412;20.956;2022-09-03T23:11:31;23.15;;;21.25;;
22046;SDS011;11187;49.412;20.956;2022-09-03T23:14:11;22.77;;;20.75;;
22046;SDS011;11187;49.412;20.956;2022-09-03T23:17:04;23.15;;;21.40;;
22046;SDS011;11187;49.412;20.956;2022-09-03T23:19:47;23.05;;;21.25;;
22046;SDS011;11187;49.412;20.956;2022-09-03T23:22:39;22.02;;;20.25;;